Munlochy, United Kingdom
Current Conditions -  °F | °C
As of 10:50 AM on Sunday 26 Oct 2014 (Local Time) from EGPE Reporting Station
Light Rain Light Rain  
Wind Chill: 52°   Ceiling: Unl
Heat Index: 52°   Visibility: 6mi
Dew Point: 48°   Wind: 29mph
Humidity: 88%   Direction: 210°SSW
Pressure: 29.41"   Gusts: NA
Location:  57.55°N, 4.26°W
Report Text: EGPE 260950Z 21025KT 9999 -RA FEW015 SCT036 11/09 Q0996
Loading
Personal Weather Stations






























Interactive Weather Map New forecast layout! Learn more

10-Day Weather Forecast

Advertisements
Track Severe Weather on mobile